Time;durP1;ratioP1;P1;durP2;ratioP2;P2;SDS_P1;SDS_P2;PMS_P1;PMS_P2;Temp;Humidity;BMP_temperature;BMP_pressure;BME280_temperature;BME280_humidity;BME280_pressure;Samples;Min_cycle;Max_cycle;Signal;HPM_P1;HPM_P2
2023/04/12 00:00:57;;;;;;;33.03;6.50;;;;;;;6.35;100.00;97582.31;5038661;28;20505;-84
2023/04/12 00:03:24;;;;;;;44.72;7.10;;;;;;;6.01;100.00;97561.31;5057900;28;20390;-85
2023/04/12 00:05:53;;;;;;;19.27;6.03;;;;;;;6.44;100.00;97566.88;5039509;28;20128;-84
2023/04/12 00:08:25;;;;;;;49.15;9.52;;;;;;;6.17;100.00;97525.50;5056662;28;20052;-83
2023/04/12 00:10:52;;;;;;;26.08;5.45;;;;;;;6.07;100.00;97488.13;5038824;28;20560;-84
2023/04/12 00:13:19;;;;;;;24.05;4.50;;;;;;;6.57;100.00;97555.63;5039487;28;20048;-85
2023/04/12 00:15:46;;;;;;;24.40;4.20;;;;;;;6.12;100.00;97454.06;5044111;28;20060;-84
2023/04/12 00:18:13;;;;;;;26.10;5.18;;;;;;;6.23;100.00;97474.88;5039244;28;20040;-85
2023/04/12 00:20:39;;;;;;;22.27;5.13;;;;;;;6.35;100.00;97458.41;5038188;28;20402;-86
2023/04/12 00:23:08;;;;;;;27.25;4.43;;;;;;;6.36;100.00;97451.47;5038474;28;20491;-84
2023/04/12 00:25:38;;;;;;;26.73;4.80;;;;;;;6.51;100.00;97462.50;5039505;28;20076;-85
2023/04/12 00:28:05;;;;;;;23.23;4.85;;;;;;;6.54;100.00;97449.28;5056694;28;20475;-84
2023/04/12 00:30:32;;;;;;;22.95;4.20;;;;;;;6.49;100.00;97400.22;5056155;28;20099;-84
2023/04/12 00:32:58;;;;;;;23.83;5.82;;;;;;;6.32;100.00;97370.31;5037815;28;20055;-84
2023/04/12 00:35:25;;;;;;;27.70;4.97;;;;;;;6.19;100.00;97367.75;5056351;28;20045;-85
2023/04/12 00:37:53;;;;;;;27.60;5.78;;;;;;;6.65;100.00;97395.53;5038592;28;20056;-84
2023/04/12 00:40:20;;;;;;;35.28;6.10;;;;;;;6.48;100.00;97349.22;5034841;28;20057;-84
2023/04/12 00:42:46;;;;;;;32.97;7.57;;;;;;;6.45;100.00;97334.66;5037286;28;20041;-83
2023/04/12 00:45:13;;;;;;;52.85;8.50;;;;;;;6.54;100.00;97316.72;5055787;28;20045;-83
2023/04/12 00:47:43;;;;;;;41.92;7.85;;;;;;;6.60;100.00;97303.25;5037428;28;20037;-84
2023/04/12 00:50:10;;;;;;;36.92;7.20;;;;;;;6.77;100.00;97317.56;5038418;28;20470;-83
2023/04/12 00:52:38;;;;;;;30.63;8.23;;;;;;;6.89;100.00;97329.63;5037014;28;20055;-84
2023/04/12 00:55:08;;;;;;;57.95;9.38;;;;;;;6.63;100.00;97287.44;5035612;28;20392;-85
2023/04/12 00:57:38;;;;;;;46.83;8.95;;;;;;;6.74;100.00;97284.81;5021974;28;20056;-84
2023/04/12 01:00:07;;;;;;;50.72;9.43;;;;;;;7.14;100.00;97299.94;5054396;28;20045;-85
2023/04/12 01:02:37;;;;;;;52.42;9.88;;;;;;;7.04;100.00;97299.00;5038227;28;20501;-85
2023/04/12 01:05:07;;;;;;;51.45;11.07;;;;;;;7.21;100.00;97276.88;5041239;28;20053;-85
2023/04/12 01:07:37;;;;;;;42.72;8.82;;;;;;;7.37;100.00;97281.69;5049011;28;20060;-85
2023/04/12 01:10:26;;;;;;;46.50;9.40;;;;;;;7.48;100.00;97265.22;5055004;28;20474;-85
2023/04/12 01:13:00;;;;;;;61.28;11.68;;;;;;;7.45;100.00;97244.63;5037901;28;20688;-85
2023/04/12 01:15:31;;;;;;;57.03;12.18;;;;;;;7.29;100.00;97204.22;5054701;28;20044;-85
2023/04/12 01:18:08;;;;;;;48.17;11.07;;;;;;;7.05;100.00;97173.19;5037752;28;20053;-85
2023/04/12 01:20:50;;;;;;;45.75;10.20;;;;;;;7.52;100.00;97212.75;5037603;28;20053;-84
2023/04/12 01:23:25;;;;;;;60.85;10.70;;;;;;;7.34;100.00;97209.06;5028228;28;20053;-85
2023/04/12 01:26:31;;;;;;;45.55;9.15;;;;;;;7.35;100.00;97203.72;5044884;28;20407;-85
2023/04/12 01:29:02;;;;;;;40.30;8.48;;;;;;;7.34;100.00;97149.19;5042130;28;20497;-85
2023/04/12 01:31:31;;;;;;;37.50;6.25;;;;;;;7.26;100.00;97144.63;5054477;28;20049;-85
2023/04/12 01:33:58;;;;;;;30.50;6.25;;;;;;;7.04;100.00;97111.72;5054159;28;20179;-84
2023/04/12 01:36:27;;;;;;;20.80;5.20;;;;;;;6.79;100.00;97094.66;5037154;28;20113;-85
2023/04/12 01:38:54;;;;;;;19.15;3.75;;;;;;;6.49;100.00;97057.16;5054812;28;20048;-85
2023/04/12 01:41:21;;;;;;;25.70;4.47;;;;;;;6.70;100.00;97069.41;5032699;28;20049;-84
2023/04/12 01:43:48;;;;;;;18.50;3.85;;;;;;;6.86;100.00;97067.22;5034540;28;20049;-85
2023/04/12 01:46:17;;;;;;;28.00;5.32;;;;;;;6.85;100.00;97042.16;5037194;28;20510;-84
2023/04/12 01:48:52;;;;;;;25.55;5.82;;;;;;;7.24;100.00;97065.84;5033894;28;20147;-86
2023/04/12 01:51:47;;;;;;;32.55;6.43;;;;;;;6.77;100.00;97027.19;5036763;28;20053;-86
2023/04/12 01:54:29;;;;;;;22.50;4.93;;;;;;;6.58;100.00;97020.03;5037341;28;20048;-85
2023/04/12 01:56:58;;;;;;;19.98;3.75;;;;;;;6.64;100.00;97029.16;5036521;28;20060;-86
2023/04/12 01:59:37;;;;;;;25.13;4.97;;;;;;;6.43;100.00;96956.34;5029021;28;20060;-86
2023/04/12 02:02:05;;;;;;;18.15;3.35;;;;;;;6.65;100.00;96950.19;5054112;28;20455;-86
2023/04/12 02:04:34;;;;;;;25.42;4.57;;;;;;;6.49;100.00;96908.22;5023160;28;20052;-86
2023/04/12 02:07:02;;;;;;;16.90;4.50;;;;;;;6.69;100.00;96927.38;5032284;28;20046;-86
2023/04/12 02:09:29;;;;;;;23.75;5.47;;;;;;;6.50;100.00;96883.88;5048030;28;20050;-85
2023/04/12 02:11:56;;;;;;;15.60;3.63;;;;;;;6.61;100.00;96902.84;5046703;28;20041;-86
2023/04/12 02:14:23;;;;;;;24.42;4.60;;;;;;;6.75;100.00;96904.28;5036683;28;20052;-85
2023/04/12 02:16:53;;;;;;;17.90;3.38;;;;;;;6.54;100.00;96867.91;5036898;28;20692;-86
2023/04/12 02:19:20;;;;;;;25.85;4.32;;;;;;;6.55;100.00;96864.38;5022851;28;20049;-85
2023/04/12 02:21:47;;;;;;;18.42;4.18;;;;;;;6.47;100.00;96835.59;5035544;28;20049;-85
2023/04/12 02:24:14;;;;;;;19.52;4.30;;;;;;;6.78;100.00;96869.41;5046492;28;20064;-85
2023/04/12 02:26:41;;;;;;;19.63;3.67;;;;;;;7.01;100.00;96870.91;5036367;28;20045;-85
2023/04/12 02:29:09;;;;;;;24.77;4.97;;;;;;;6.53;100.00;96805.66;5040754;28;20132;-84
2023/04/12 02:31:37;;;;;;;18.17;3.50;;;;;;;6.73;100.00;96841.22;5053102;28;20049;-85
2023/04/12 02:34:05;;;;;;;21.58;4.20;;;;;;;6.71;100.00;96826.69;5036233;28;20094;-85
2023/04/12 02:36:32;;;;;;;13.50;3.60;;;;;;;6.68;100.00;96835.56;5053321;28;20103;-85
2023/04/12 02:38:58;;;;;;;14.80;3.40;;;;;;;6.51;100.00;96795.38;5035388;28;20053;-85
2023/04/12 02:41:25;;;;;;;15.38;3.35;;;;;;;6.56;100.00;96782.84;5052563;28;20499;-85
2023/04/12 02:43:52;;;;;;;19.73;3.58;;;;;;;6.55;100.00;96765.63;5036113;28;20049;-84
2023/04/12 02:46:24;;;;;;;20.83;2.95;;;;;;;6.85;100.00;96766.53;5036322;28;20493;-84
2023/04/12 02:48:51;;;;;;;12.10;2.60;;;;;;;6.73;100.00;96747.63;5030543;28;20483;-85
2023/04/12 02:51:18;;;;;;;12.80;2.47;;;;;;;6.73;100.00;96734.63;5027559;28;20052;-85
2023/04/12 02:53:45;;;;;;;12.43;2.50;;;;;;;6.32;100.00;96707.78;5035866;28;20414;-84
2023/04/12 02:56:11;;;;;;;9.10;2.25;;;;;;;6.28;100.00;96698.59;5053855;28;20025;-84
2023/04/12 02:58:39;;;;;;;9.68;2.33;;;;;;;6.70;100.00;96768.69;5052936;28;20056;-86
2023/04/12 03:01:11;;;;;;;8.18;2.10;;;;;;;6.40;100.00;96707.94;5034302;28;20482;-86
2023/04/12 03:03:39;;;;;;;15.38;2.58;;;;;;;6.50;100.00;96761.72;5051882;28;20049;-86
2023/04/12 03:06:08;;;;;;;15.57;2.22;;;;;;;6.59;100.00;96722.81;5036017;28;20488;-86
2023/04/12 03:08:35;;;;;;;10.20;3.40;;;;;;;6.70;100.00;96721.88;5035657;28;20079;-86
2023/04/12 03:11:01;;;;;;;11.40;2.10;;;;;;;6.51;100.00;96704.44;5052453;28;20076;-86
2023/04/12 03:13:28;;;;;;;11.02;2.30;;;;;;;6.52;100.00;96726.06;5053624;28;20067;-86
2023/04/12 03:15:57;;;;;;;11.73;3.08;;;;;;;6.72;100.00;96748.56;5032352;28;20065;-87
2023/04/12 03:18:24;;;;;;;13.13;2.72;;;;;;;6.52;100.00;96739.06;5037500;28;20067;-86
2023/04/12 03:20:51;;;;;;;9.13;2.13;;;;;;;6.59;100.00;96729.78;5026355;28;20037;-86
2023/04/12 03:23:19;;;;;;;7.03;1.85;;;;;;;6.94;100.00;96764.91;5038813;28;20056;-85
2023/04/12 03:25:46;;;;;;;16.17;3.88;;;;;;;6.43;100.00;96694.72;5034306;28;20049;-86
2023/04/12 03:28:12;;;;;;;14.43;3.13;;;;;;;6.64;100.00;96738.03;5033069;28;20052;-86
2023/04/12 03:30:39;;;;;;;9.27;2.42;;;;;;;6.54;100.00;96721.56;5041729;28;20072;-86
2023/04/12 03:33:06;;;;;;;12.70;3.55;;;;;;;6.83;100.00;96765.84;5052060;28;20479;-86
2023/04/12 03:35:33;;;;;;;18.80;4.55;;;;;;;6.55;100.00;96726.63;5035185;28;20095;-87
2023/04/12 03:38:00;;;;;;;10.02;2.33;;;;;;;6.85;100.00;96787.34;5039552;28;20053;-87
2023/04/12 03:40:27;;;;;;;15.65;2.75;;;;;;;6.58;100.00;96754.94;5050381;28;20045;-87
2023/04/12 03:42:53;;;;;;;10.05;2.58;;;;;;;6.74;100.00;96764.03;5052812;28;20398;-86
2023/04/12 03:45:20;;;;;;;14.48;3.45;;;;;;;6.45;100.00;96755.16;5036432;28;20049;-86
2023/04/12 03:47:47;;;;;;;13.63;3.30;;;;;;;6.58;100.00;96791.31;5035264;28;20041;-87
2023/04/12 03:50:14;;;;;;;12.93;2.60;;;;;;;6.12;100.00;96784.75;5043269;28;20609;-85
2023/04/12 03:52:40;;;;;;;10.45;2.00;;;;;;;6.21;100.00;96829.94;5051542;28;20045;-86
2023/04/12 03:55:07;;;;;;;2.47;1.02;;;;;;;5.79;100.00;96806.47;5033134;28;20132;-87
2023/04/12 03:57:34;;;;;;;3.42;1.00;;;;;;;6.02;100.00;96818.47;5041242;28;20045;-87
2023/04/12 04:00:01;;;;;;;1.38;0.85;;;;;;;5.99;100.00;96864.63;5035085;28;20052;-86
2023/04/12 04:02:30;;;;;;;1.50;0.90;;;;;;;5.62;100.00;96857.97;5028577;28;20042;-85
2023/04/12 04:04:57;;;;;;;1.13;0.90;;;;;;;5.29;100.00;96854.53;5033840;28;20057;-84
2023/04/12 04:07:25;;;;;;;1.20;1.00;;;;;;;4.89;100.00;96883.50;5037231;28;20049;-86
2023/04/12 04:09:53;;;;;;;1.58;1.00;;;;;;;4.93;100.00;96897.06;5052895;28;20045;-87
2023/04/12 04:12:20;;;;;;;1.05;0.95;;;;;;;4.32;100.00;96884.31;5033774;28;20402;-87
2023/04/12 04:14:46;;;;;;;1.20;1.00;;;;;;;4.36;100.00;96880.59;5051879;28;20064;-86
2023/04/12 04:17:13;;;;;;;2.20;0.90;;;;;;;4.35;100.00;96902.22;5032424;28;20041;-86
2023/04/12 04:19:40;;;;;;;1.70;1.00;;;;;;;4.04;100.00;96947.63;5052689;28;20057;-86
2023/04/12 04:22:08;;;;;;;1.08;0.98;;;;;;;4.44;100.00;96981.03;5051554;28;20057;-86
2023/04/12 04:24:37;;;;;;;0.82;0.82;;;;;;;4.10;100.00;96971.31;5053060;28;20102;-86
2023/04/12 04:27:05;;;;;;;0.95;0.90;;;;;;;4.35;100.00;97037.72;5052563;28;20124;-86
2023/04/12 04:29:32;;;;;;;0.90;0.75;;;;;;;4.28;100.00;97040.88;5035683;28;20426;-86
2023/04/12 04:32:00;;;;;;;1.90;1.10;;;;;;;4.02;100.00;97024.56;5037727;28;20099;-85
2023/04/12 04:34:27;;;;;;;2.70;0.93;;;;;;;3.88;100.00;97021.22;5037931;28;20053;-86
2023/04/12 04:36:54;;;;;;;1.55;0.90;;;;;;;4.69;100.00;97110.47;5038461;28;20045;-86
2023/04/12 04:39:21;;;;;;;1.75;0.90;;;;;;;4.44;100.00;97063.91;5038045;28;20083;-86
2023/04/12 04:41:53;;;;;;;1.00;0.90;;;;;;;4.49;100.00;97080.78;5054983;28;20085;-86
2023/04/12 04:44:21;;;;;;;1.10;1.00;;;;;;;4.28;100.00;97046.03;5039408;28;20497;-86
2023/04/12 04:46:48;;;;;;;2.25;1.05;;;;;;;4.66;100.00;97122.81;5038210;28;20057;-85
2023/04/12 04:49:15;;;;;;;1.85;1.10;;;;;;;4.49;100.00;97113.63;5037527;28;20071;-86
2023/04/12 04:51:41;;;;;;;1.85;1.20;;;;;;;4.17;100.00;97088.22;5037555;28;20127;-86
2023/04/12 04:54:08;;;;;;;3.28;1.00;;;;;;;4.60;100.00;97112.88;5049124;28;20095;-86
2023/04/12 04:56:35;;;;;;;3.22;1.40;;;;;;;4.38;100.00;97120.38;5055534;28;20056;-86
2023/04/12 04:59:02;;;;;;;5.55;1.65;;;;;;;4.01;100.00;97044.47;5040961;28;20079;-86
2023/04/12 05:01:28;;;;;;;4.20;1.60;;;;;;;4.48;100.00;97118.00;5037022;28;20084;-85
2023/04/12 05:03:55;;;;;;;4.63;1.63;;;;;;;4.32;100.00;97094.09;5055073;28;20482;-86
2023/04/12 05:06:22;;;;;;;7.95;1.83;;;;;;;4.55;100.00;97127.00;5044612;28;20053;-86
2023/04/12 05:08:51;;;;;;;5.47;1.92;;;;;;;4.63;100.00;97117.84;5052997;28;20056;-85
2023/04/12 05:11:19;;;;;;;8.02;1.80;;;;;;;4.55;100.00;97116.63;5037256;28;20383;-86
2023/04/12 05:13:46;;;;;;;8.75;2.08;;;;;;;4.90;100.00;97183.25;5055410;28;20398;-86
2023/04/12 05:16:13;;;;;;;7.55;2.05;;;;;;;4.75;100.00;97166.22;5037989;28;20757;-87
2023/04/12 05:18:39;;;;;;;9.13;2.25;;;;;;;4.60;100.00;97170.69;5048242;28;20475;-86
2023/04/12 05:21:06;;;;;;;11.13;2.22;;;;;;;5.05;100.00;97229.78;5054409;28;20102;-86
2023/04/12 05:23:41;;;;;;;7.85;2.17;;;;;;;5.04;100.00;97244.50;5055296;28;20474;-87
2023/04/12 05:26:08;;;;;;;10.73;2.97;;;;;;;4.66;100.00;97216.91;5036950;28;20052;-87
2023/04/12 05:28:35;;;;;;;9.75;3.22;;;;;;;4.60;100.00;97190.59;5037278;28;20060;-86
2023/04/12 05:31:04;;;;;;;13.32;2.42;;;;;;;4.81;100.00;97224.56;5053681;28;20041;-86
2023/04/12 05:33:33;;;;;;;21.42;3.47;;;;;;;4.75;100.00;97218.03;5039623;28;20088;-85
2023/04/12 05:36:00;;;;;;;11.30;3.08;;;;;;;5.08;100.00;97278.81;5054498;28;20052;-86
2023/04/12 05:38:27;;;;;;;15.38;3.28;;;;;;;4.77;100.00;97238.69;5040540;28;20092;-87
2023/04/12 05:40:54;;;;;;;8.52;2.78;;;;;;;4.74;100.00;97247.47;5036173;28;20475;-87
2023/04/12 05:43:21;;;;;;;18.55;3.05;;;;;;;4.88;100.00;97291.41;5049924;28;20053;-86
2023/04/12 05:45:49;;;;;;;12.90;3.25;;;;;;;4.81;100.00;97316.09;5053826;28;20048;-86
2023/04/12 05:48:17;;;;;;;11.20;3.53;;;;;;;4.47;100.00;97230.31;5054045;28;20061;-86
2023/04/12 05:50:51;;;;;;;17.38;3.72;;;;;;;4.57;100.00;97228.75;5054958;28;20107;-87
2023/04/12 05:53:18;;;;;;;15.68;3.45;;;;;;;4.61;100.00;97288.13;5032831;28;20080;-86
2023/04/12 05:55:45;;;;;;;13.93;3.00;;;;;;;4.69;100.00;97259.91;5053967;28;20052;-86
2023/04/12 05:58:12;;;;;;;12.63;2.70;;;;;;;4.64;100.00;97265.44;5054369;28;20044;-86
2023/04/12 06:00:40;;;;;;;10.10;3.08;;;;;;;4.68;100.00;97284.19;5044541;28;20407;-86
2023/04/12 06:03:09;;;;;;;18.70;3.42;;;;;;;5.09;100.00;97325.38;5035993;28;20418;-86
2023/04/12 06:05:37;;;;;;;17.65;3.63;;;;;;;4.92;100.00;97298.06;5033310;28;20413;-88
2023/04/12 06:08:05;;;;;;;11.50;2.45;;;;;;;5.11;100.00;97352.03;5027774;28;20053;-87
2023/04/12 06:10:31;;;;;;;19.13;3.67;;;;;;;5.17;100.00;97350.81;5036203;28;20072;-87
2023/04/12 06:12:58;;;;;;;10.75;2.75;;;;;;;4.90;100.00;97330.19;5052931;28;20470;-87
2023/04/12 06:15:25;;;;;;;18.40;3.15;;;;;;;5.02;100.00;97346.66;5036653;28;20055;-87
2023/04/12 06:17:52;;;;;;;14.43;3.70;;;;;;;4.95;100.00;97362.63;5035697;28;20051;-88
2023/04/12 06:20:19;;;;;;;19.48;3.60;;;;;;;4.94;100.00;97368.78;5054553;28;20124;-87
2023/04/12 06:22:46;;;;;;;15.85;3.70;;;;;;;4.72;100.00;97335.69;5051686;28;20048;-88
2023/04/12 06:25:12;;;;;;;15.10;4.43;;;;;;;4.61;100.00;97335.59;5037012;28;20048;-88
2023/04/12 06:27:39;;;;;;;16.92;4.45;;;;;;;4.63;100.00;97335.50;5036949;28;20475;-88
2023/04/12 06:30:07;;;;;;;16.63;3.47;;;;;;;4.69;100.00;97364.44;5036219;28;20074;-88
2023/04/12 06:32:33;;;;;;;16.88;3.50;;;;;;;4.69;100.00;97322.97;5035577;28;20055;-88
2023/04/12 06:35:00;;;;;;;18.00;4.07;;;;;;;4.78;100.00;97368.16;5046957;28;20120;-88
2023/04/12 06:37:27;;;;;;;17.73;4.28;;;;;;;4.92;100.00;97352.50;5053679;28;20083;-87
2023/04/12 06:39:54;;;;;;;14.27;3.97;;;;;;;4.86;100.00;97373.63;5033038;28;20049;-88
2023/04/12 06:42:20;;;;;;;13.90;2.80;;;;;;;5.26;100.00;97421.97;5039921;28;20033;-88
2023/04/12 06:44:47;;;;;;;20.52;4.88;;;;;;;4.99;100.00;97415.09;5052775;28;20041;-87
2023/04/12 06:47:14;;;;;;;15.07;3.75;;;;;;;5.11;100.00;97387.53;5031275;28;20119;-87
2023/04/12 06:49:41;;;;;;;18.23;4.00;;;;;;;5.31;100.00;97391.31;5035445;28;20544;-85
2023/04/12 06:52:08;;;;;;;16.63;3.22;;;;;;;5.31;100.00;97392.16;5052767;28;20119;-86
2023/04/12 06:54:36;;;;;;;17.17;3.88;;;;;;;5.40;100.00;97431.38;5043340;28;20136;-85
2023/04/12 06:57:08;;;;;;;11.70;3.55;;;;;;;5.37;100.00;97431.59;5050257;28;20079;-87
2023/04/12 06:59:35;;;;;;;16.23;3.70;;;;;;;5.38;100.00;97431.47;5036086;28;20044;-87
2023/04/12 07:02:02;;;;;;;14.27;3.42;;;;;;;5.43;100.00;97463.13;5037101;28;20069;-85
2023/04/12 07:04:28;;;;;;;15.30;3.80;;;;;;;5.24;100.00;97403.91;5042322;28;20059;-86
2023/04/12 07:06:55;;;;;;;16.92;4.07;;;;;;;5.57;100.00;97435.41;5036108;28;20049;-87
2023/04/12 07:09:22;;;;;;;17.55;2.95;;;;;;;5.94;100.00;97467.38;5028535;28;20045;-86
2023/04/12 07:11:49;;;;;;;13.10;2.90;;;;;;;5.82;100.00;97447.47;5028434;28;20048;-86
2023/04/12 07:14:16;;;;;;;15.63;3.17;;;;;;;6.26;100.00;97479.88;5052364;28;20049;-85
2023/04/12 07:16:43;;;;;;;19.90;3.50;;;;;;;5.88;100.00;97434.06;5035447;28;20063;-85
2023/04/12 07:19:09;;;;;;;12.90;3.42;;;;;;;6.71;100.00;97497.41;5045970;28;20045;-85
2023/04/12 07:21:40;;;;;;;18.75;3.90;;;;;;;6.53;100.00;97510.00;5041795;28;20056;-86
2023/04/12 07:24:11;;;;;;;15.57;4.10;;;;;;;6.06;100.00;97481.31;5030133;28;20041;-84
2023/04/12 07:26:38;;;;;;;22.13;4.15;;;;;;;6.27;100.00;97503.16;5033801;28;20061;-86
2023/04/12 07:29:04;;;;;;;15.27;3.10;;;;;;;6.00;100.00;97477.38;5030995;28;20049;-86
2023/04/12 07:31:31;;;;;;;8.55;2.33;;;;;;;5.83;100.00;97449.97;5031075;28;20052;-85
2023/04/12 07:33:58;;;;;;;11.48;2.75;;;;;;;6.25;100.00;97507.63;5043167;28;20045;-85
2023/04/12 07:36:26;;;;;;;14.98;2.70;;;;;;;6.16;100.00;97534.25;5034203;28;20076;-86
2023/04/12 07:38:54;;;;;;;8.77;2.47;;;;;;;6.33;100.00;97522.66;5053347;28;20049;-87
2023/04/12 07:41:21;;;;;;;11.07;2.67;;;;;;;6.47;100.00;97517.28;5052171;28;20102;-86
2023/04/12 07:43:49;;;;;;;8.35;2.55;;;;;;;6.15;100.00;97474.63;5039057;28;20037;-87
2023/04/12 07:46:15;;;;;;;17.98;3.60;;;;;;;6.33;100.00;97519.22;5047734;28;20076;-86
2023/04/12 07:48:43;;;;;;;12.43;2.85;;;;;;;6.12;100.00;97488.66;5052556;28;20131;-87
2023/04/12 07:51:10;;;;;;;28.20;3.30;;;;;;;6.54;100.00;97522.06;5052091;28;20076;-86
2023/04/12 07:53:37;;;;;;;14.60;3.33;;;;;;;6.03;100.00;97516.09;5053566;28;20115;-86
2023/04/12 07:56:05;;;;;;;20.50;3.55;;;;;;;6.19;100.00;97528.84;5034913;28;20093;-86
2023/04/12 07:58:33;;;;;;;20.05;3.80;;;;;;;6.52;100.00;97563.75;5035112;28;20060;-87
2023/04/12 08:01:00;;;;;;;17.85;3.65;;;;;;;6.26;100.00;97522.25;5034353;28;20517;-86
2023/04/12 08:03:28;;;;;;;14.75;3.05;;;;;;;6.32;100.00;97574.72;5053626;28;20372;-87
2023/04/12 08:06:08;;;;;;;15.50;3.70;;;;;;;6.28;100.00;97576.72;5055936;28;20045;-86
2023/04/12 08:08:43;;;;;;;11.10;2.83;;;;;;;6.40;100.00;97581.03;5032976;28;20052;-87
2023/04/12 08:11:19;;;;;;;19.42;3.45;;;;;;;6.38;100.00;97576.91;5032785;28;20628;-86
2023/04/12 08:13:57;;;;;;;10.60;3.50;;;;;;;6.03;100.00;97543.84;5042442;28;20049;-86
2023/04/12 08:16:31;;;;;;;12.45;3.00;;;;;;;5.89;100.00;97560.34;5034668;28;20045;-87
2023/04/12 08:18:58;;;;;;;17.40;3.63;;;;;;;5.84;100.00;97606.56;5040854;28;20065;-86
2023/04/12 08:21:26;;;;;;;16.05;3.17;;;;;;;5.98;100.00;97572.72;5056043;28;20049;-87
2023/04/12 08:23:53;;;;;;;15.15;3.33;;;;;;;5.97;100.00;97576.28;5038688;28;20041;-87
2023/04/12 08:26:20;;;;;;;11.02;3.13;;;;;;;5.98;100.00;97538.13;5038626;28;20052;-84
2023/04/12 08:28:49;;;;;;;17.77;3.28;;;;;;;5.99;100.00;97577.00;5043594;28;20052;-87
2023/04/12 08:31:17;;;;;;;15.20;3.90;;;;;;;6.08;100.00;97583.31;5029400;28;20068;-87
2023/04/12 08:33:43;;;;;;;16.48;2.83;;;;;;;6.29;100.00;97614.75;5041930;28;20559;-85
2023/04/12 08:36:10;;;;;;;10.93;3.30;;;;;;;6.27;100.00;97581.09;5055289;28;20429;-86
2023/04/12 08:38:37;;;;;;;8.80;2.63;;;;;;;6.30;100.00;97542.84;5037931;28;20537;-87
2023/04/12 08:41:11;;;;;;;14.13;2.83;;;;;;;6.26;100.00;97543.03;5054362;28;20060;-86
2023/04/12 08:43:44;;;;;;;15.25;3.63;;;;;;;6.58;100.00;97635.28;5054102;28;20072;-86
2023/04/12 08:46:14;;;;;;;18.98;3.65;;;;;;;6.05;100.00;97573.94;5051027;28;20045;-86
2023/04/12 08:48:45;;;;;;;18.65;5.43;;;;;;;6.01;100.00;97566.50;5035880;28;20112;-85
2023/04/12 08:51:17;;;;;;;10.18;2.75;;;;;;;6.54;100.00;97628.63;5036958;28;20044;-84
2023/04/12 08:53:44;;;;;;;15.57;3.05;;;;;;;6.52;100.00;97633.94;5054768;28;20102;-84
2023/04/12 08:56:13;;;;;;;10.38;2.90;;;;;;;6.44;100.00;97612.84;5053551;28;20045;-84
2023/04/12 08:58:43;;;;;;;12.50;2.97;;;;;;;6.34;100.00;97641.25;5037080;28;20483;-84
2023/04/12 09:01:14;;;;;;;17.10;2.97;;;;;;;6.30;100.00;97645.00;5053962;28;20819;-84
2023/04/12 09:03:43;;;;;;;10.15;2.78;;;;;;;6.34;100.00;97624.81;5036739;28;20048;-85
2023/04/12 09:06:11;;;;;;;17.80;3.40;;;;;;;6.06;100.00;97600.78;5055281;28;20045;-85
2023/04/12 09:08:52;;;;;;;12.68;3.15;;;;;;;6.26;100.00;97626.19;5041495;28;20056;-85
2023/04/12 09:11:24;;;;;;;15.75;3.60;;;;;;;6.22;100.00;97608.34;5036543;28;20128;-85
2023/04/12 09:14:01;;;;;;;16.85;4.85;;;;;;;6.04;100.00;97616.47;5035464;28;20049;-85
2023/04/12 09:16:37;;;;;;;17.60;3.60;;;;;;;6.47;100.00;97652.44;5037741;28;20060;-84
2023/04/12 09:19:05;;;;;;;14.98;2.85;;;;;;;6.46;100.00;97640.41;5054352;28;20128;-84
2023/04/12 09:21:36;;;;;;;18.98;3.22;;;;;;;6.11;100.00;97634.22;5036425;28;20063;-84
2023/04/12 09:24:12;;;;;;;12.82;3.35;;;;;;;6.18;100.00;97602.53;5054099;28;20534;-85
2023/04/12 09:26:40;;;;;;;12.45;2.80;;;;;;;6.67;100.00;97649.38;5033100;28;20041;-85
2023/04/12 09:29:24;;;;;;;14.52;3.80;;;;;;;6.74;100.00;97642.81;5032101;28;20051;-84
2023/04/12 09:31:55;;;;;;;;;;;;;;;6.97;100.00;97660.19;5038007;28;20049;-83
2023/04/12 09:34:35;;;;;;;17.92;3.80;;;;;;;6.81;100.00;97638.81;5030443;28;19964;-84
2023/04/12 09:37:13;;;;;;;18.95;4.90;;;;;;;6.83;100.00;97621.34;5031960;28;20541;-81
2023/04/12 09:39:41;;;;;;;16.27;3.75;;;;;;;7.29;100.00;97680.44;5040286;28;20048;-82
2023/04/12 09:42:11;;;;;;;14.65;3.30;;;;;;;7.12;100.00;97642.66;5032169;28;20049;-82
2023/04/12 09:44:56;;;;;;;14.45;3.60;;;;;;;7.02;100.00;97639.88;5038040;28;20127;-82
2023/04/12 09:47:41;;;;;;;13.63;4.10;;;;;;;7.19;100.00;97697.69;5054185;28;20106;-83
2023/04/12 09:50:18;;;;;;;11.02;2.90;;;;;;;7.38;100.00;97700.63;5053435;28;20049;-82
2023/04/12 09:52:45;;;;;;;14.20;2.60;;;;;;;7.65;100.00;97699.53;5040418;28;20103;-82
2023/04/12 09:55:12;;;;;;;19.10;4.35;;;;;;;7.52;100.00;97714.38;5045771;28;20044;-83
2023/04/12 09:57:43;;;;;;;17.85;3.28;;;;;;;7.30;100.00;97699.50;5042898;28;20053;-83
2023/04/12 10:00:13;;;;;;;11.98;2.75;;;;;;;7.76;100.00;97727.38;5043521;28;20052;-83
2023/04/12 10:02:42;;;;;;;11.60;3.25;;;;;;;6.98;100.00;97689.66;5051012;28;20080;-83
2023/04/12 10:05:17;;;;;;;17.15;3.25;;;;;;;7.38;100.00;97715.38;5051924;28;20080;-83
2023/04/12 10:07:45;;;;;;;13.18;2.38;;;;;;;7.59;100.00;97741.63;5034655;28;20494;-82
2023/04/12 10:10:14;;;;;;;14.27;2.53;;;;;;;7.30;100.00;97710.75;5035728;28;20716;-82
2023/04/12 10:12:43;;;;;;;9.15;2.50;;;;;;;7.71;100.00;97740.72;5050637;28;20049;-82
2023/04/12 10:15:16;;;;;;;11.98;3.13;;;;;;;7.31;100.00;97693.34;5042468;28;20431;-82
2023/04/12 10:17:53;;;;;;;15.23;3.08;;;;;;;8.04;100.00;97739.19;5032958;28;20045;-82
2023/04/12 10:20:23;;;;;;;12.63;2.38;;;;;;;7.93;100.00;97758.22;5044923;28;20479;-83
2023/04/12 10:22:55;;;;;;;11.93;3.22;;;;;;;8.03;100.00;97737.50;5034885;28;20045;-82
2023/04/12 10:25:24;;;;;;;10.73;2.45;;;;;;;7.87;100.00;97719.59;5039924;28;20049;-81
2023/04/12 10:27:51;;;;;;;17.00;3.20;;;;;;;7.80;100.00;97752.25;5051816;28;20049;-82
2023/04/12 10:30:24;;;;;;;15.57;2.80;;;;;;;7.70;100.00;97772.09;5052173;28;20170;-81
2023/04/12 10:33:03;;;;;;;14.90;2.80;;;;;;;8.17;100.00;97772.97;5033366;28;20553;-82
2023/04/12 10:35:56;;;;;;;11.90;2.80;;;;;;;8.15;100.00;97767.03;5051149;28;20045;-82
2023/04/12 10:38:30;;;;;;;13.60;3.22;;;;;;;8.59;100.00;97773.28;5035032;28;20059;-86
2023/04/12 10:41:20;;;;;;;14.90;2.80;;;;;;;8.82;100.00;97775.88;5052583;28;20402;-85
2023/04/12 10:43:48;;;;;;;18.52;2.47;;;;;;;8.49;100.00;97704.53;5028675;28;20045;-86
2023/04/12 10:46:36;;;;;;;12.18;2.40;;;;;;;8.96;100.00;97774.81;5035860;28;20044;-87
2023/04/12 10:49:29;;;;;;;17.17;2.90;;;;;;;8.69;100.00;97784.69;5046341;28;20056;-87
2023/04/12 10:52:08;;;;;;;12.35;2.33;;;;;;;8.50;100.00;97756.56;5031384;28;20052;-87
2023/04/12 10:54:35;;;;;;;11.77;2.55;;;;;;;7.87;100.00;97734.41;5037180;28;20051;-88
2023/04/12 10:57:03;;;;;;;10.02;2.95;;;;;;;8.20;100.00;97793.59;5053148;28;20055;-86
2023/04/12 10:59:49;;;;;;;16.83;3.30;;;;;;;8.14;100.00;97812.28;5036279;28;20059;-85
2023/04/12 11:02:16;;;;;;;21.67;3.30;;;;;;;7.57;100.00;97740.91;5052888;28;20044;-86
2023/04/12 11:05:08;;;;;;;23.42;3.75;;;;;;;8.31;100.00;97811.84;5035363;28;20102;-88
2023/04/12 11:07:42;;;;;;;18.85;3.10;;;;;;;8.29;100.00;97759.00;5024123;28;20677;-84
2023/04/12 11:10:14;;;;;;;14.75;3.60;;;;;;;8.25;100.00;97764.56;5050794;28;20045;-84
2023/04/12 11:12:48;;;;;;;12.38;2.55;;;;;;;8.45;100.00;97810.84;5053611;28;20080;-84
2023/04/12 11:15:15;;;;;;;11.93;2.38;;;;;;;8.43;100.00;97791.03;5051729;28;20048;-84
2023/04/12 11:17:52;;;;;;;12.15;2.60;;;;;;;8.38;100.00;97793.97;5037295;28;20072;-86
2023/04/12 11:20:20;;;;;;;10.77;2.70;;;;;;;8.45;100.00;97797.81;5051465;28;20056;-86
2023/04/12 11:22:48;;;;;;;14.82;3.17;;;;;;;8.27;100.00;97779.16;5052026;28;20410;-84
2023/04/12 11:25:19;;;;;;;19.55;3.63;;;;;;;8.60;100.00;97805.41;5052695;28;20554;-85
2023/04/12 11:27:53;;;;;;;13.45;3.03;;;;;;;7.96;100.00;97791.03;5053129;28;20080;-85
2023/04/12 11:30:22;;;;;;;19.02;2.50;;;;;;;8.40;100.00;97796.47;5046438;28;20127;-82
2023/04/12 11:32:49;;;;;;;10.57;2.35;;;;;;;8.35;100.00;97783.78;5034296;28;20387;-84
2023/04/12 11:35:19;;;;;;;10.75;2.70;;;;;;;8.18;100.00;97764.22;5043573;28;20132;-85
2023/04/12 11:37:46;;;;;;;12.90;3.47;;;;;;;8.49;100.00;97808.84;5031278;28;20128;-85